Time;durP1;ratioP1;P1;durP2;ratioP2;P2;SDS_P1;SDS_P2;PMS_P1;PMS_P2;Temp;Humidity;BMP_temperature;BMP_pressure;BME280_temperature;BME280_humidity;BME280_pressure;Samples;Min_cycle;Max_cycle;Signal;HPM_P1;HPM_P2
2023/03/20 00:00:36;;;;;;;6.95;3.78;;;8.90;99.90;;;;;;4936002;29;20069;-88
2023/03/20 00:03:02;;;;;;;6.05;3.17;;;8.90;99.90;;;;;;4932597;28;20524;-87
2023/03/20 00:05:28;;;;;;;6.73;3.00;;;8.80;99.90;;;;;;4943456;28;20023;-86
2023/03/20 00:07:56;;;;;;;6.05;3.40;;;8.80;99.90;;;;;;4930452;28;20051;-86
2023/03/20 00:10:25;;;;;;;5.38;2.80;;;8.80;99.90;;;;;;4951960;28;20024;-88
2023/03/20 00:12:51;;;;;;;4.88;2.60;;;8.70;99.90;;;;;;4936674;29;20050;-86
2023/03/20 00:15:26;;;;;;;5.13;2.63;;;8.70;99.90;;;;;;4935462;28;20409;-89
2023/03/20 00:17:52;;;;;;;4.47;2.40;;;8.70;99.90;;;;;;4916180;28;20094;-85
2023/03/20 00:20:18;;;;;;;5.38;2.60;;;8.60;99.90;;;;;;4929436;28;20347;-87
2023/03/20 00:22:44;;;;;;;5.38;2.63;;;8.60;99.90;;;;;;4934184;29;20031;-86
2023/03/20 00:25:18;;;;;;;4.90;2.60;;;8.50;99.90;;;;;;4910631;29;20069;-87
2023/03/20 00:27:45;;;;;;;5.50;2.70;;;8.50;99.90;;;;;;4934947;28;20023;-86
2023/03/20 00:30:25;;;;;;;6.03;2.78;;;8.50;99.90;;;;;;4934460;29;20027;-88
2023/03/20 00:32:51;;;;;;;4.82;2.60;;;8.50;99.90;;;;;;4901406;29;20019;-86
2023/03/20 00:35:20;;;;;;;4.60;2.40;;;8.40;99.90;;;;;;4930050;28;20114;-87
2023/03/20 00:37:45;;;;;;;5.32;2.75;;;8.40;99.90;;;;;;4938203;29;20027;-86
2023/03/20 00:40:12;;;;;;;5.72;2.83;;;8.30;99.90;;;;;;4924486;28;20875;-87
2023/03/20 00:42:38;;;;;;;5.45;2.60;;;8.30;99.90;;;;;;4936010;29;20110;-86
2023/03/20 00:45:04;;;;;;;5.37;2.80;;;8.30;99.90;;;;;;4925936;29;20253;-86
2023/03/20 00:47:35;;;;;;;5.43;2.72;;;8.30;99.90;;;;;;4919997;28;20023;-86
2023/03/20 00:50:01;;;;;;;5.80;2.90;;;8.30;99.90;;;;;;4921486;28;20027;-88
2023/03/20 00:52:27;;;;;;;6.30;2.75;;;8.30;99.90;;;;;;4921482;29;20031;-86
2023/03/20 00:54:53;;;;;;;7.43;3.03;;;8.30;99.90;;;;;;4925512;28;20435;-86
2023/03/20 00:57:25;;;;;;;5.67;2.83;;;8.30;99.90;;;;;;4935224;28;20066;-87
2023/03/20 00:59:57;;;;;;;5.78;2.92;;;8.30;99.90;;;;;;4937026;29;20050;-86
2023/03/20 01:02:27;;;;;;;6.45;2.67;;;8.30;99.90;;;;;;4937380;28;20035;-87
2023/03/20 01:04:53;;;;;;;6.90;2.83;;;8.20;99.90;;;;;;4918159;28;20035;-86
2023/03/20 01:07:19;;;;;;;5.65;2.80;;;8.20;99.90;;;;;;4929929;28;20027;-89
2023/03/20 01:09:46;;;;;;;6.43;2.60;;;8.30;99.90;;;;;;4924012;29;20035;-86
2023/03/20 01:12:13;;;;;;;4.88;2.53;;;8.30;99.90;;;;;;4912136;29;20050;-89
2023/03/20 01:14:39;;;;;;;6.13;3.08;;;8.30;99.90;;;;;;4938109;29;20460;-85
2023/03/20 01:17:05;;;;;;;5.73;2.67;;;8.30;99.90;;;;;;4937624;28;20237;-86
2023/03/20 01:19:30;;;;;;;4.90;2.80;;;8.30;99.90;;;;;;4916160;28;20047;-86
2023/03/20 01:21:56;;;;;;;7.57;2.83;;;8.30;99.90;;;;;;4928515;28;20074;-87
2023/03/20 01:24:22;;;;;;;5.80;3.10;;;8.40;99.90;;;;;;4922007;29;20019;-87
2023/03/20 01:26:50;;;;;;;5.28;2.65;;;8.30;99.90;;;;;;4917273;29;20030;-87
2023/03/20 01:29:20;;;;;;;6.53;2.87;;;8.30;99.90;;;;;;4918655;29;20020;-86
2023/03/20 01:31:46;;;;;;;6.72;2.80;;;8.30;99.90;;;;;;4937020;28;20089;-85
2023/03/20 01:34:12;;;;;;;6.97;3.13;;;8.30;99.90;;;;;;4935090;28;20839;-87
2023/03/20 01:36:39;;;;;;;6.30;3.15;;;8.30;99.90;;;;;;4904298;28;20101;-86
2023/03/20 01:39:05;;;;;;;5.22;2.80;;;8.40;99.90;;;;;;4930867;28;20228;-88
2023/03/20 01:41:31;;;;;;;5.37;2.73;;;8.40;99.90;;;;;;4939924;29;20461;-89
2023/03/20 01:44:00;;;;;;;8.65;3.45;;;8.40;99.90;;;;;;4925521;28;20026;-86
2023/03/20 01:46:30;;;;;;;5.95;2.80;;;8.40;99.90;;;;;;4937664;29;20438;-88
2023/03/20 01:49:18;;;;;;;6.35;3.00;;;8.50;99.90;;;;;;4917979;29;20023;-87
2023/03/20 01:51:43;;;;;;;5.85;2.70;;;8.50;99.90;;;;;;4928225;28;20031;-86
2023/03/20 01:54:17;;;;;;;6.10;3.20;;;8.50;99.90;;;;;;4913418;29;20179;-86
2023/03/20 01:56:57;;;;;;;6.18;3.25;;;8.60;99.90;;;;;;4935711;28;20532;-86
2023/03/20 01:59:40;;;;;;;6.22;3.38;;;8.60;99.90;;;;;;4926527;28;20039;-87
2023/03/20 02:02:07;;;;;;;6.38;3.03;;;8.60;99.90;;;;;;4931663;29;20240;-86
2023/03/20 02:04:37;;;;;;;6.27;2.90;;;8.70;99.90;;;;;;4934209;28;20043;-86
2023/03/20 02:07:06;;;;;;;6.20;2.92;;;8.70;99.90;;;;;;4904880;28;20361;-87
2023/03/20 02:09:31;;;;;;;5.70;2.83;;;8.70;99.90;;;;;;4917024;29;20026;-87
2023/03/20 02:11:59;;;;;;;5.23;3.00;;;8.80;99.90;;;;;;4948313;28;20233;-87
2023/03/20 02:14:25;;;;;;;4.70;2.55;;;8.80;99.90;;;;;;4932196;28;20027;-88
2023/03/20 02:16:51;;;;;;;5.60;2.90;;;8.90;99.90;;;;;;4927259;28;20035;-86
2023/03/20 02:19:46;;;;;;;6.95;2.67;;;8.80;99.90;;;;;;4918395;29;20038;-88
2023/03/20 02:22:49;;;;;;;7.13;2.63;;;8.90;99.90;;;;;;4918009;28;20061;-87
2023/03/20 02:25:33;;;;;;;5.40;2.80;;;8.90;99.90;;;;;;4930729;29;20062;-87
2023/03/20 02:28:36;;;;;;;4.97;2.50;;;8.90;99.90;;;;;;4921926;28;20078;-86
2023/03/20 02:31:40;;;;;;;5.13;2.60;;;8.90;99.90;;;;;;4932794;28;20027;-88
2023/03/20 02:34:24;;;;;;;5.10;2.45;;;8.90;99.90;;;;;;4935381;29;20035;-87
2023/03/20 02:37:04;;;;;;;4.97;2.60;;;8.90;99.90;;;;;;4903339;28;20397;-85
2023/03/20 02:39:54;;;;;;;5.23;2.63;;;8.90;99.90;;;;;;4931889;28;20028;-86
2023/03/20 02:42:26;;;;;;;5.07;2.53;;;8.90;99.90;;;;;;4937618;29;20233;-88
2023/03/20 02:45:13;;;;;;;5.38;2.60;;;8.80;99.90;;;;;;4927215;28;20821;-87
2023/03/20 02:47:56;;;;;;;4.75;2.80;;;8.80;99.90;;;;;;4937881;29;20120;-87
2023/03/20 02:50:35;;;;;;;5.82;3.20;;;8.80;99.90;;;;;;4936935;29;20059;-87
2023/03/20 02:53:22;;;;;;;5.70;2.90;;;8.80;99.90;;;;;;4902656;28;27288;-89
2023/03/20 02:56:02;;;;;;;5.63;2.90;;;8.80;99.90;;;;;;4929515;28;20039;-87
2023/03/20 02:58:37;;;;;;;7.47;3.45;;;8.80;99.90;;;;;;4924794;29;20400;-87
2023/03/20 03:01:12;;;;;;;5.45;2.80;;;8.70;99.90;;;;;;4925924;29;20451;-86
2023/03/20 03:04:03;;;;;;;5.63;3.00;;;8.70;99.90;;;;;;4954094;28;20036;-86
2023/03/20 03:06:31;;;;;;;5.63;3.03;;;8.70;99.90;;;;;;4921991;29;20023;-89
2023/03/20 03:09:13;;;;;;;5.53;2.70;;;8.60;99.90;;;;;;4927843;28;20118;-87
2023/03/20 03:11:48;;;;;;;5.82;2.92;;;8.60;99.90;;;;;;4930741;28;20024;-87
2023/03/20 03:14:37;;;;;;;6.90;3.03;;;8.60;99.90;;;;;;4937076;29;20115;-87
2023/03/20 03:17:06;;;;;;;6.60;3.17;;;8.60;99.90;;;;;;4916181;28;20316;-87
2023/03/20 03:19:35;;;;;;;5.57;2.90;;;8.60;99.90;;;;;;4924389;29;20103;-87
2023/03/20 03:22:02;;;;;;;6.80;2.90;;;8.60;99.90;;;;;;4913665;29;20236;-89
2023/03/20 03:24:36;;;;;;;8.18;3.47;;;8.60;99.90;;;;;;4923622;28;20106;-86
2023/03/20 03:27:12;;;;;;;7.80;3.58;;;8.60;99.90;;;;;;4930298;28;20083;-86
2023/03/20 03:29:39;;;;;;;7.30;3.22;;;8.60;99.90;;;;;;4922729;29;20023;-87
2023/03/20 03:32:06;;;;;;;6.63;3.00;;;8.60;99.90;;;;;;4915150;29;20515;-87
2023/03/20 03:34:34;;;;;;;6.80;3.42;;;8.50;99.90;;;;;;4940476;29;20536;-87
2023/03/20 03:37:14;;;;;;;7.85;3.58;;;8.60;99.90;;;;;;4939192;29;20742;-87
2023/03/20 03:40:00;;;;;;;7.72;3.40;;;8.60;99.90;;;;;;4917111;28;20406;-85
2023/03/20 03:42:38;;;;;;;7.80;3.30;;;8.60;99.90;;;;;;4940721;28;20031;-86
2023/03/20 03:45:22;;;;;;;5.93;3.10;;;8.60;99.90;;;;;;4936939;28;20725;-87
2023/03/20 03:47:55;;;;;;;6.10;3.00;;;8.70;99.90;;;;;;4930772;28;20449;-86
2023/03/20 03:50:30;;;;;;;8.32;3.80;;;8.60;99.90;;;;;;4951661;28;20524;-86
2023/03/20 03:52:58;;;;;;;5.82;2.90;;;8.70;99.90;;;;;;4954743;28;20477;-86
2023/03/20 03:55:28;;;;;;;5.93;2.85;;;8.60;99.90;;;;;;4915724;28;20031;-87
2023/03/20 03:58:01;;;;;;;6.37;3.33;;;8.70;99.90;;;;;;4930518;28;20043;-87
2023/03/20 04:00:28;;;;;;;8.38;3.30;;;8.70;99.90;;;;;;4933025;29;20039;-86
2023/03/20 04:02:56;;;;;;;9.10;3.90;;;8.70;99.90;;;;;;4911997;29;20456;-89
2023/03/20 04:05:25;;;;;;;8.13;3.42;;;8.70;99.90;;;;;;4917916;29;20064;-88
2023/03/20 04:07:56;;;;;;;7.50;3.72;;;8.70;99.90;;;;;;4917806;28;20243;-85
2023/03/20 04:10:22;;;;;;;7.87;3.20;;;8.70;99.90;;;;;;4935592;29;20078;-87
2023/03/20 04:12:48;;;;;;;7.68;3.75;;;8.70;99.90;;;;;;4914724;28;20081;-89
2023/03/20 04:15:15;;;;;;;7.68;3.42;;;8.70;99.90;;;;;;4932323;28;20042;-85
2023/03/20 04:17:41;;;;;;;10.17;3.63;;;8.70;99.90;;;;;;4932407;28;20031;-85
2023/03/20 04:20:09;;;;;;;9.25;3.70;;;8.70;99.90;;;;;;4921203;29;20078;-89
2023/03/20 04:22:35;;;;;;;9.00;3.70;;;8.70;99.90;;;;;;4935197;29;20046;-85
2023/03/20 04:25:02;;;;;;;10.23;4.05;;;8.70;99.90;;;;;;4930429;28;20499;-87
2023/03/20 04:27:28;;;;;;;9.60;4.00;;;8.70;99.90;;;;;;4900729;29;20631;-86
2023/03/20 04:29:54;;;;;;;10.20;4.20;;;8.70;99.90;;;;;;4910635;29;20130;-86
2023/03/20 04:32:20;;;;;;;7.83;3.47;;;8.70;99.90;;;;;;4937471;28;20078;-88
2023/03/20 04:34:46;;;;;;;8.10;3.75;;;8.80;99.90;;;;;;4926935;28;20050;-87
2023/03/20 04:37:11;;;;;;;8.60;3.50;;;8.80;99.90;;;;;;4934015;29;20028;-90
2023/03/20 04:39:37;;;;;;;9.70;4.27;;;8.80;99.90;;;;;;4918449;29;20169;-85
2023/03/20 04:42:04;;;;;;;9.10;3.83;;;8.80;99.90;;;;;;4914550;28;20190;-89
2023/03/20 04:44:30;;;;;;;9.75;3.95;;;8.80;99.90;;;;;;4926680;28;20523;-86
2023/03/20 04:46:56;;;;;;;8.75;4.47;;;8.80;99.90;;;;;;4926861;28;20031;-87
2023/03/20 04:49:22;;;;;;;9.33;3.90;;;8.80;99.90;;;;;;4920631;29;20299;-88
2023/03/20 04:51:48;;;;;;;11.43;3.90;;;8.80;99.90;;;;;;4928092;28;20015;-85
2023/03/20 04:54:13;;;;;;;8.17;3.80;;;8.80;99.90;;;;;;4938147;29;20516;-88
2023/03/20 04:56:39;;;;;;;7.67;3.40;;;8.80;99.90;;;;;;4916968;28;20031;-86
2023/03/20 04:59:05;;;;;;;7.70;3.63;;;8.80;99.90;;;;;;4950424;28;20283;-86
2023/03/20 05:01:30;;;;;;;9.80;4.10;;;8.90;99.90;;;;;;4931859;28;20655;-86
2023/03/20 05:04:00;;;;;;;8.55;3.72;;;8.90;99.90;;;;;;4913812;28;20042;-89
2023/03/20 05:06:32;;;;;;;9.68;3.90;;;8.90;99.90;;;;;;4925069;28;20035;-85
2023/03/20 05:08:59;;;;;;;11.17;3.90;;;8.90;99.90;;;;;;4918089;29;20045;-87
2023/03/20 05:11:26;;;;;;;8.15;3.55;;;8.90;99.90;;;;;;4932476;28;21029;-85
2023/03/20 05:13:52;;;;;;;9.10;4.28;;;8.90;99.90;;;;;;4899152;29;20031;-88
2023/03/20 05:16:18;;;;;;;6.70;3.20;;;8.90;99.90;;;;;;4934206;28;20633;-87
2023/03/20 05:18:44;;;;;;;9.30;3.57;;;8.90;99.90;;;;;;4911805;29;20230;-90
2023/03/20 05:21:10;;;;;;;10.10;4.13;;;8.90;99.90;;;;;;4929850;29;20422;-88
2023/03/20 05:23:35;;;;;;;10.07;3.53;;;8.90;99.90;;;;;;4918483;29;20029;-86
2023/03/20 05:26:02;;;;;;;8.20;3.20;;;9.00;99.90;;;;;;4933802;29;20311;-88
2023/03/20 05:28:28;;;;;;;6.35;3.28;;;9.00;99.90;;;;;;4915221;28;20301;-85
2023/03/20 05:30:54;;;;;;;6.32;2.75;;;9.00;99.90;;;;;;4916721;29;20028;-86
2023/03/20 05:33:20;;;;;;;8.13;3.13;;;9.00;99.90;;;;;;4903946;28;20221;-86
2023/03/20 05:35:46;;;;;;;8.48;3.33;;;9.00;99.90;;;;;;4935135;28;20114;-88
2023/03/20 05:38:11;;;;;;;8.15;3.40;;;9.00;99.90;;;;;;4921073;28;20073;-86
2023/03/20 05:40:37;;;;;;;6.80;2.90;;;9.10;99.90;;;;;;4926232;29;20038;-89
2023/03/20 05:43:03;;;;;;;6.40;2.80;;;9.00;99.90;;;;;;4911338;28;20608;-88
2023/03/20 05:45:29;;;;;;;7.80;3.60;;;9.00;99.90;;;;;;4915582;29;20051;-86
2023/03/20 05:47:55;;;;;;;5.75;2.83;;;9.00;99.90;;;;;;4912709;29;20528;-86
2023/03/20 05:50:20;;;;;;;7.97;3.40;;;9.00;99.90;;;;;;4933950;29;21577;-89
2023/03/20 05:52:47;;;;;;;7.60;3.47;;;9.10;99.90;;;;;;4929510;28;20637;-88
2023/03/20 05:55:13;;;;;;;6.55;2.83;;;9.10;99.90;;;;;;4930110;28;20213;-88
2023/03/20 05:57:39;;;;;;;6.97;2.95;;;9.10;99.90;;;;;;4913938;28;20311;-89
2023/03/20 06:00:05;;;;;;;6.43;2.93;;;9.00;99.90;;;;;;4932640;28;20747;-87
2023/03/20 06:02:31;;;;;;;8.93;3.20;;;9.10;99.90;;;;;;4925499;28;20031;-88
2023/03/20 06:04:57;;;;;;;8.43;3.10;;;9.10;99.90;;;;;;4922125;28;20366;-85
2023/03/20 06:07:23;;;;;;;7.70;3.00;;;9.10;99.90;;;;;;4922296;28;20706;-88
2023/03/20 06:09:49;;;;;;;7.60;2.75;;;9.10;99.90;;;;;;4936896;28;20126;-86
2023/03/20 06:12:15;;;;;;;8.43;3.17;;;9.10;99.90;;;;;;4929903;28;20204;-90
2023/03/20 06:14:40;;;;;;;8.23;3.40;;;9.10;99.90;;;;;;4915737;28;20015;-86
2023/03/20 06:17:06;;;;;;;7.03;3.17;;;9.20;99.90;;;;;;4948657;28;20071;-89
2023/03/20 06:19:32;;;;;;;6.15;2.50;;;9.10;99.90;;;;;;4926978;28;20024;-88
2023/03/20 06:21:57;;;;;;;6.73;2.83;;;9.10;99.90;;;;;;4924302;28;20023;-87
2023/03/20 06:24:23;;;;;;;7.93;2.80;;;9.20;99.90;;;;;;4914249;29;20869;-87
2023/03/20 06:26:49;;;;;;;5.35;2.75;;;9.20;99.90;;;;;;4917458;28;20020;-86
2023/03/20 06:29:15;;;;;;;8.00;3.30;;;9.20;99.90;;;;;;4892417;28;20516;-87
2023/03/20 06:31:41;;;;;;;7.80;2.78;;;9.20;99.90;;;;;;4933995;28;20011;-88
2023/03/20 06:34:06;;;;;;;5.73;2.67;;;9.30;99.90;;;;;;4921233;28;20141;-86
2023/03/20 06:36:32;;;;;;;5.95;2.67;;;9.30;99.90;;;;;;4935806;28;20074;-89
2023/03/20 06:38:58;;;;;;;7.33;2.60;;;9.30;99.90;;;;;;4922500;28;20034;-87
2023/03/20 06:41:24;;;;;;;9.87;3.20;;;9.30;99.90;;;;;;4928521;28;20279;-85
2023/03/20 06:43:50;;;;;;;5.65;2.85;;;9.40;99.90;;;;;;4934538;28;20106;-87
2023/03/20 06:46:16;;;;;;;6.10;2.83;;;9.40;99.90;;;;;;4899578;29;20031;-88
2023/03/20 06:48:41;;;;;;;7.17;3.00;;;9.40;99.90;;;;;;4933971;28;20516;-86
2023/03/20 06:51:07;;;;;;;6.40;2.70;;;9.50;99.90;;;;;;4926909;28;20023;-88
2023/03/20 06:53:33;;;;;;;6.07;2.90;;;9.50;99.90;;;;;;4910140;28;20062;-87
2023/03/20 06:55:59;;;;;;;5.28;2.47;;;9.50;99.90;;;;;;4932466;28;20035;-87
2023/03/20 06:58:24;;;;;;;7.30;3.47;;;9.50;99.90;;;;;;4913616;28;20032;-86
2023/03/20 07:00:50;;;;;;;11.65;3.22;;;9.50;99.90;;;;;;4893098;29;20035;-87
2023/03/20 07:03:16;;;;;;;6.88;3.10;;;9.60;99.90;;;;;;4912528;29;20113;-87
2023/03/20 07:05:42;;;;;;;9.67;3.73;;;9.60;99.90;;;;;;4913193;29;20280;-86
2023/03/20 07:08:08;;;;;;;8.07;3.17;;;9.60;99.90;;;;;;4924848;28;20027;-87
2023/03/20 07:10:34;;;;;;;9.00;3.13;;;9.60;99.90;;;;;;4935926;28;20086;-84
2023/03/20 07:13:00;;;;;;;9.48;3.45;;;9.60;99.90;;;;;;4922899;29;20131;-87
2023/03/20 07:15:28;;;;;;;6.22;3.10;;;9.60;99.90;;;;;;4921849;28;20127;-87
2023/03/20 07:17:54;;;;;;;6.10;3.03;;;9.60;99.90;;;;;;4898035;29;20224;-89
2023/03/20 07:20:19;;;;;;;8.67;3.40;;;9.70;99.90;;;;;;4927603;28;20747;-87
2023/03/20 07:22:47;;;;;;;8.25;3.13;;;9.70;99.90;;;;;;4910245;28;20349;-85
2023/03/20 07:25:13;;;;;;;6.35;2.42;;;9.70;99.90;;;;;;4937226;28;20352;-88
2023/03/20 07:27:39;;;;;;;6.53;2.67;;;9.70;99.90;;;;;;4922504;29;20019;-86
2023/03/20 07:30:05;;;;;;;4.82;2.58;;;9.70;99.90;;;;;;4940310;28;20457;-87
2023/03/20 07:32:31;;;;;;;7.32;2.60;;;9.80;99.90;;;;;;4920867;28;20082;-86
2023/03/20 07:34:57;;;;;;;6.13;2.80;;;9.80;99.90;;;;;;4936485;28;20095;-87
2023/03/20 07:37:23;;;;;;;5.17;2.60;;;9.90;99.90;;;;;;4918820;29;20377;-88
2023/03/20 07:39:49;;;;;;;6.65;2.50;;;9.90;99.90;;;;;;4907513;29;20027;-85
2023/03/20 07:42:15;;;;;;;5.83;2.20;;;9.90;99.90;;;;;;4930493;28;20098;-89
2023/03/20 07:44:41;;;;;;;4.53;2.10;;;10.00;99.90;;;;;;4936148;28;20039;-86
2023/03/20 07:47:07;;;;;;;5.93;2.05;;;10.00;99.90;;;;;;4922660;28;20437;-85
2023/03/20 07:49:32;;;;;;;5.93;2.47;;;10.00;99.90;;;;;;4912678;28;20276;-85
2023/03/20 07:51:58;;;;;;;5.85;2.33;;;10.10;99.90;;;;;;4932263;28;20027;-88
2023/03/20 07:54:24;;;;;;;5.03;2.22;;;10.10;99.90;;;;;;4923007;28;20026;-86
2023/03/20 07:56:50;;;;;;;5.93;2.40;;;10.20;99.90;;;;;;4932599;29;20094;-87
2023/03/20 07:59:16;;;;;;;5.70;2.10;;;10.30;99.90;;;;;;4924305;29;20031;-88
2023/03/20 08:01:42;;;;;;;4.47;1.95;;;10.30;99.90;;;;;;4900691;28;20425;-87
2023/03/20 08:04:08;;;;;;;5.93;2.40;;;10.40;99.90;;;;;;4940566;28;20032;-87
2023/03/20 08:06:33;;;;;;;4.75;2.00;;;10.50;99.90;;;;;;4919106;29;20035;-86
2023/03/20 08:08:59;;;;;;;6.18;2.10;;;10.50;99.90;;;;;;4908365;29;20442;-89
2023/03/20 08:11:25;;;;;;;4.70;1.60;;;10.60;99.90;;;;;;4918095;29;20059;-86
2023/03/20 08:13:51;;;;;;;4.75;2.03;;;10.60;99.90;;;;;;4938976;28;20297;-88
2023/03/20 08:16:16;;;;;;;5.30;2.10;;;10.60;99.90;;;;;;4921100;29;20669;-88
2023/03/20 08:18:42;;;;;;;6.68;2.25;;;10.70;99.90;;;;;;4897689;28;20233;-88
2023/03/20 08:21:08;;;;;;;4.63;1.87;;;10.70;99.90;;;;;;4922927;29;20034;-89
2023/03/20 08:23:34;;;;;;;5.22;2.03;;;10.70;99.90;;;;;;4939431;28;20351;-86
2023/03/20 08:25:59;;;;;;;5.10;2.00;;;10.70;99.90;;;;;;4919838;28;20034;-86
2023/03/20 08:28:25;;;;;;;5.13;2.15;;;10.60;99.90;;;;;;4937331;28;20118;-85
2023/03/20 08:30:51;;;;;;;6.37;2.10;;;10.70;99.90;;;;;;4950698;28;20193;-86
2023/03/20 08:33:18;;;;;;;4.78;1.75;;;10.60;99.90;;;;;;4924092;29;20024;-86
2023/03/20 08:35:53;;;;;;;3.65;1.70;;;10.60;99.90;;;;;;4914001;28;20020;-86
2023/03/20 08:38:19;;;;;;;5.23;1.80;;;10.60;99.90;;;;;;4923139;29;20107;-90
2023/03/20 08:40:44;;;;;;;6.10;1.85;;;10.50;99.90;;;;;;4895428;28;20512;-88
2023/03/20 08:43:10;;;;;;;4.07;1.50;;;10.50;99.90;;;;;;4920863;29;20485;-89
2023/03/20 08:45:36;;;;;;;4.00;1.48;;;10.40;99.90;;;;;;4922394;29;20039;-86
2023/03/20 08:48:02;;;;;;;4.00;1.70;;;10.40;99.90;;;;;;4938284;29;20037;-86
2023/03/20 08:50:28;;;;;;;4.37;1.60;;;10.40;99.90;;;;;;4901042;29;20095;-85
2023/03/20 08:52:54;;;;;;;4.78;1.70;;;10.30;99.90;;;;;;4937297;28;20634;-87
2023/03/20 08:55:20;;;;;;;4.57;1.70;;;10.30;99.90;;;;;;4949137;28;20024;-87
2023/03/20 08:57:46;;;;;;;5.50;1.50;;;10.30;99.90;;;;;;4923160;28;20049;-86
2023/03/20 09:00:14;;;;;;;4.97;2.10;;;10.30;99.90;;;;;;4936213;28;20481;-87
2023/03/20 09:02:40;;;;;;;5.32;1.80;;;10.40;99.90;;;;;;4932960;28;20032;-88
2023/03/20 09:05:07;;;;;;;4.72;1.70;;;10.40;99.90;;;;;;4919937;29;20110;-88
2023/03/20 09:07:32;;;;;;;3.42;1.45;;;10.40;99.90;;;;;;4901736;29;20482;-87
2023/03/20 09:09:58;;;;;;;4.33;1.87;;;10.50;99.90;;;;;;4915118;29;20023;-86
2023/03/20 09:12:24;;;;;;;4.00;1.70;;;10.60;99.90;;;;;;4923523;28;20485;-85
2023/03/20 09:14:49;;;;;;;5.18;1.85;;;10.60;99.90;;;;;;4935979;28;20491;-87
2023/03/20 09:17:15;;;;;;;3.53;2.03;;;10.60;99.90;;;;;;4922214;29;20031;-88
2023/03/20 09:19:43;;;;;;;4.88;1.90;;;10.70;99.90;;;;;;4948928;28;20548;-87
2023/03/20 09:22:12;;;;;;;6.65;2.28;;;10.70;99.90;;;;;;4913793;28;20023;-87
2023/03/20 09:24:38;;;;;;;7.57;2.22;;;10.70;99.90;;;;;;4923807;28;20054;-85
2023/03/20 09:27:04;;;;;;;4.00;1.77;;;10.80;99.90;;;;;;4925189;29;20031;-89
2023/03/20 09:29:30;;;;;;;3.67;2.00;;;10.80;99.90;;;;;;4910118;28;20367;-85
2023/03/20 09:31:55;;;;;;;4.23;1.73;;;10.80;99.90;;;;;;4938897;28;20030;-87
2023/03/20 09:34:23;;;;;;;4.10;2.03;;;10.90;99.90;;;;;;4937996;28;20007;-86
2023/03/20 09:36:48;;;;;;;5.20;2.10;;;10.90;99.90;;;;;;4900114;28;20516;-86
2023/03/20 09:39:14;;;;;;;4.80;2.10;;;11.10;99.90;;;;;;4938546;28;20114;-90
2023/03/20 09:41:47;;;;;;;6.28;2.47;;;11.10;99.90;;;;;;4929727;28;20149;-87
2023/03/20 09:44:33;;;;;;;6.32;1.90;;;11.20;99.90;;;;;;4940022;28;20047;-87
2023/03/20 09:47:09;;;;;;;5.43;2.50;;;11.30;99.90;;;;;;4936469;28;20138;-86
2023/03/20 09:49:57;;;;;;;6.20;2.30;;;11.40;99.90;;;;;;4951080;28;20032;-86
2023/03/20 09:52:52;;;;;;;5.05;2.10;;;11.50;99.90;;;;;;4930264;28;20034;-86
2023/03/20 09:55:28;;;;;;;5.03;2.10;;;11.70;99.90;;;;;;4932676;28;20221;-87
2023/03/20 09:58:03;;;;;;;5.32;2.08;;;11.80;99.90;;;;;;4930357;28;20280;-86
2023/03/20 10:00:33;;;;;;;5.73;2.20;;;11.90;99.90;;;;;;4907025;29;20027;-85
2023/03/20 10:03:02;;;;;;;5.85;2.45;;;12.00;99.90;;;;;;4938026;28;20055;-91
2023/03/20 10:05:43;;;;;;;5.07;2.13;;;12.20;99.90;;;;;;4951911;28;20022;-86
2023/03/20 10:08:15;;;;;;;4.80;2.20;;;12.30;99.90;;;;;;4915945;28;20086;-89
2023/03/20 10:11:15;;;;;;;6.80;2.42;;;12.40;99.90;;;;;;4922727;29;20023;-86
2023/03/20 10:14:22;;;;;;;6.57;2.50;;;12.60;99.90;;;;;;4927847;28;20218;-87
2023/03/20 10:17:20;;;;;;;7.18;2.30;;;12.70;99.90;;;;;;4914030;28;20153;-86
2023/03/20 10:19:59;;;;;;;6.13;2.03;;;12.80;99.90;;;;;;4950771;28;20146;-86
2023/03/20 10:22:35;;;;;;;5.05;2.22;;;12.80;99.90;;;;;;4933737;28;20142;-86
2023/03/20 10:25:23;;;;;;;5.65;2.30;;;12.90;99.90;;;;;;4900164;29;20031;-87
2023/03/20 10:28:16;;;;;;;6.53;2.40;;;12.90;99.90;;;;;;4940941;28;20035;-87
2023/03/20 10:30:49;;;;;;;8.32;2.38;;;12.90;99.90;;;;;;4917916;28;20069;-88
2023/03/20 10:33:44;;;;;;;5.32;2.50;;;12.90;99.90;;;;;;4952517;28;20043;-87
2023/03/20 10:36:32;;;;;;;4.82;2.25;;;13.00;99.90;;;;;;4950066;28;20042;-87
2023/03/20 10:39:16;;;;;;;6.97;2.20;;;13.00;99.90;;;;;;4936848;28;20257;-85
2023/03/20 10:41:48;;;;;;;5.83;2.30;;;13.00;99.90;;;;;;4913226;28;20437;-86
2023/03/20 10:44:20;;;;;;;4.97;2.20;;;13.00;99.90;;;;;;4914036;29;20647;-86
2023/03/20 10:46:52;;;;;;;7.55;2.30;;;13.00;99.90;;;;;;4919432;28;20524;-88
2023/03/20 10:49:17;;;;;;;5.15;2.50;;;13.00;99.90;;;;;;4921304;29;20028;-85
2023/03/20 10:52:09;;;;;;;5.70;2.30;;;13.00;99.90;;;;;;4930523;28;20070;-89
2023/03/20 10:54:39;;;;;;;4.20;2.10;;;13.00;99.90;;;;;;4895587;29;20122;-85
2023/03/20 10:57:16;;;;;;;6.32;1.90;;;13.10;99.90;;;;;;4938552;28;20395;-86
2023/03/20 10:59:56;;;;;;;7.10;2.50;;;13.20;99.90;;;;;;4915067;28;20241;-87
2023/03/20 11:02:26;;;;;;;5.40;2.13;;;13.30;99.90;;;;;;4930070;28;20034;-85
2023/03/20 11:04:52;;;;;;;7.35;2.38;;;13.30;99.90;;;;;;4934405;28;20404;-88
2023/03/20 11:07:36;;;;;;;5.75;2.40;;;13.40;99.90;;;;;;4918609;29;20019;-85
2023/03/20 11:10:05;;;;;;;6.07;2.27;;;13.50;99.90;;;;;;4937653;28;20035;-87
2023/03/20 11:12:39;;;;;;;6.13;2.50;;;13.50;99.90;;;;;;4917605;28;20050;-88
2023/03/20 11:15:29;;;;;;;6.10;2.30;;;13.50;99.90;;;;;;4916847;29;20039;-86
2023/03/20 11:17:58;;;;;;;5.95;2.33;;;13.40;99.90;;;;;;4920300;28;20051;-87
2023/03/20 11:20:25;;;;;;;5.78;2.35;;;13.40;99.90;;;;;;4938847;28;20039;-85
2023/03/20 11:22:58;;;;;;;8.17;2.30;;;13.40;99.90;;;;;;4938450;29;20254;-85
2023/03/20 11:25:31;;;;;;;5.45;2.10;;;13.40;99.90;;;;;;4933820;28;20023;-86
2023/03/20 11:28:17;;;;;;;5.28;2.13;;;13.50;99.90;;;;;;4932415;28;20293;-88
2023/03/20 11:30:43;;;;;;;6.13;2.22;;;13.60;99.90;;;;;;4916524;29;20316;-88
2023/03/20 11:33:10;;;;;;;4.57;2.27;;;13.80;99.90;;;;;;4919842;29;20485;-87
2023/03/20 11:35:35;;;;;;;6.00;2.30;;;14.10;99.90;;;;;;4909839;29;20035;-86
2023/03/20 11:38:20;;;;;;;5.53;2.33;;;14.40;99.90;;;;;;4956200;28;20035;-84
2023/03/20 11:40:51;;;;;;;5.10;2.10;;;14.60;99.90;;;;;;4920828;29;20278;-89
2023/03/20 11:43:27;;;;;;;5.95;2.33;;;14.70;99.90;;;;;;4904559;29;20086;-86
2023/03/20 11:46:03;;;;;;;4.80;2.50;;;14.90;99.90;;;;;;4946598;28;20299;-88
2023/03/20 11:48:44;;;;;;;4.60;2.20;;;15.00;99.90;;;;;;4921275;29;20031;-86
2023/03/20 11:51:15;;;;;;;4.82;2.30;;;15.10;99.90;;;;;;4909552;29;20441;-87
2023/03/20 11:54:01;;;;;;;5.50;2.30;;;15.20;99.90;;;;;;4936025;29;20712;-87
2023/03/20 11:56:29;;;;;;;5.38;2.10;;;15.30;99.90;;;;;;4935574;28;20344;-83
2023/03/20 11:59:10;;;;;;;5.82;2.22;;;15.50;99.90;;;;;;4917946;28;20260;-87
2023/03/20 12:01:47;;;;;;;7.03;2.67;;;15.70;99.90;;;;;;4945538;28;20035;-85
2023/03/20 12:04:40;;;;;;;5.93;2.40;;;15.80;99.90;;;;;;4935033;28;20501;-88
2023/03/20 12:07:28;;;;;;;7.03;2.10;;;15.80;99.90;;;;;;4953086;28;20046;-88
2023/03/20 12:09:58;;;;;;;5.18;1.85;;;15.80;99.90;;;;;;4932744;28;20261;-87
2023/03/20 12:12:35;;;;;;;4.45;1.80;;;15.80;99.90;;;;;;4920299;29;20086;-86
2023/03/20 12:15:37;;;;;;;6.75;2.50;;;15.80;99.90;;;;;;4914903;28;20051;-86
2023/03/20 12:18:18;;;;;;;5.43;2.10;;;15.80;99.90;;;;;;4932087;28;20718;-87
2023/03/20 12:21:06;;;;;;;8.10;2.63;;;15.70;99.90;;;;;;4922937;28;20452;-88
2023/03/20 12:23:50;;;;;;;5.15;2.15;;;15.70;99.90;;;;;;4916968;29;20047;-85
2023/03/20 12:26:45;;;;;;;6.55;2.30;;;15.70;98.50;;;;;;4932903;28;20055;-87
2023/03/20 12:29:37;;;;;;;7.15;2.35;;;15.60;99.90;;;;;;4901921;28;20714;-85
2023/03/20 12:32:12;;;;;;;6.07;2.10;;;15.50;99.90;;;;;;4923629;29;20031;-88
2023/03/20 12:34:55;;;;;;;6.47;2.23;;;15.50;99.90;;;;;;4929544;28;20106;-85
2023/03/20 12:37:21;;;;;;;6.25;2.08;;;15.50;99.90;;;;;;4928061;28;20042;-85
2023/03/20 12:39:47;;;;;;;4.57;2.20;;;15.50;99.90;;;;;;4934262;28;20164;-82
2023/03/20 12:42:20;;;;;;;8.13;2.80;;;15.50;99.90;;;;;;4923000;29;20035;-85
2023/03/20 12:45:30;;;;;;;5.57;2.28;;;15.50;99.90;;;;;;4912037;28;20884;-86
2023/03/20 12:47:58;;;;;;;5.22;1.95;;;15.50;98.90;;;;;;4914312;29;20262;-85
2023/03/20 12:51:02;;;;;;;6.15;2.20;;;15.50;99.90;;;;;;4946156;28;20618;-86
2023/03/20 12:53:34;;;;;;;6.57;2.25;;;15.60;99.90;;;;;;4922060;28;20041;-86
2023/03/20 12:56:05;;;;;;;4.13;1.90;;;15.60;99.90;;;;;;4935449;28;20382;-86
2023/03/20 12:58:43;;;;;;;5.78;2.17;;;15.60;99.90;;;;;;4933433;28;20031;-86
2023/03/20 13:01:11;;;;;;;6.05;2.00;;;15.60;99.90;;;;;;4914680;28;20035;-87
2023/03/20 13:03:55;;;;;;;6.07;2.40;;;15.60;99.90;;;;;;4926964;28;20071;-83
2023/03/20 13:06:51;;;;;;;6.43;2.58;;;15.60;99.90;;;;;;4924281;29;20042;-86
2023/03/20 13:09:24;;;;;;;6.60;2.20;;;15.60;97.20;;;;;;4922374;28;20442;-86
2023/03/20 13:12:17;;;;;;;5.05;2.45;;;15.60;99.90;;;;;;4934568;28;20074;-87
2023/03/20 13:14:49;;;;;;;4.10;1.75;;;15.50;99.90;;;;;;4916040;28;20513;-86